• Join FlightAware (Why Join?)
  • Login
  • US Flag 
03:49PM EDT


 

Airport Tracker/Info


-or-


 

Live Flight TrackerFlight Track Log ✈ N762NC ✈ 16-Aug-2013 ✈ KSAV - KATL

Flight Track Log - Related Links

Times and Time Zones

All times are in EDT time to prevent confusion due to time zone crossing. See the N762NC flight status page for this flight to view local times or setup timezone preferences in your user account.

Time Position Orientation Groundspeed Altitude Reporting Facility
EDT Latitude Longitude Course Direction KTS MPH feet Rate Location/Type
07:11PM 32.0808 -81.1125 288° West 213 245 3,200  Level Jacksonville Center
07:12PM 32.0147 -81.1531 207° Southwest 224 258 5,400 2,100 Climbing Jacksonville Center
07:13PM 32.0283 -81.2361 281° West 212 244 7,400 2,100 Climbing Jacksonville Center
07:14PM 32.0772 -81.3039 310° West 230 265 9,600 1,500 Climbing Jacksonville Center
07:15PM 32.1117 -81.3964 294° West 276 318 10,400 1,380 Climbing Jacksonville Center
07:16PM 32.2682 -81.7333 288° West  Level FlightAware Approximate
07:16PM 32.1442 -81.4917 292° West 335 386 12,400  Level Jacksonville Center
07:17PM 32.2927 -81.8232 288° West  Level FlightAware Approximate
07:17PM 32.1914 -81.6014 297° West 341 392 14,300  Level Jacksonville Center
07:18PM 32.2278 -81.6989 294° West 352 405 16,400 1,800 Climbing Jacksonville Center
07:19PM 32.2769 -81.8189 296° West 362 417 18,000 1,440 Climbing Jacksonville Center
07:22PM 32.3636 -82.0914 291° West 379 436 21,300 1,140 Climbing Atlanta Center
07:23PM 32.3989 -82.2183 288° West 390 449 22,000 300 Climbing Atlanta Center
07:24PM 32.4322 -82.3456 287° West 403 464 21,900  Descending Atlanta Center
07:25PM 32.4733 -82.4731 291° West 408 470 22,000  Climbing Atlanta Center
07:26PM 32.5083 -82.6053 287° West 413 475 22,000 -60 Level Atlanta Center
07:27PM 32.5475 -82.7353 290° West 421 484 21,900  Descending Atlanta Center
07:28PM 32.5967 -82.8653 294° West 421 484 22,000  Climbing Atlanta Center
07:29PM 32.6731 -82.9803 308° West 434 499 21,900 -60 Descending Atlanta Center
07:30PM 32.7492 -83.1003 307° West 446 513 21,900  Level Atlanta Center
07:31PM 32.8333 -83.1983 316° Northwest 440 506 21,900 -660 Level Atlanta Center
07:32PM 32.9131 -83.2842 318° Northwest 412 474 20,600 -1,800 Descending Atlanta Center
07:33PM 32.9783 -83.3753 311° West 387 445 18,400 -1,920 Descending Atlanta Center
07:34PM 33.0372 -83.4689 307° West 368 423 16,800 -1,200 Descending Atlanta Center
07:35PM 33.0856 -83.5456 307° West 339 390 16,000 -1,260 Descending Atlanta Center
07:36PM 33.1422 -83.6344 307° West 318 366 14,300 -1,020 Descending Atlanta Center
07:37PM 33.1886 -83.7186 303° West 308 354 14,000 -180 Descending Atlanta Center
07:38PM 33.2306 -83.8053 300° West 303 349 14,000 -300 Level Atlanta Center
07:39PM 33.2722 -83.8897 301° West 303 349 13,400 -900 Descending Atlanta Center
07:40PM 33.3225 -83.9692 307° West 303 349 12,300 -720 Descending Atlanta Center
07:41PM 33.3725 -84.0489 307° West 298 343 12,000 -180 Descending Atlanta Center
07:42PM 33.4144 -84.1158 307° West 277 319 12,000  Level Atlanta Center
07:43PM 33.4561 -84.1808 308° West 257 296 12,000  Level Atlanta Center
07:44PM 33.4997 -84.2456 309° West 250 288 12,000  Level Atlanta Center
07:45PM 33.5267 -84.3056 298° West 242 278 12,100 -840 Climbing Atlanta Center
07:46PM 33.5453 -84.3703 289° West 220 253 10,400 -1,860 Descending Atlanta Center
07:47PM 33.5500 -84.4500 274° West 216 249 8,300 -1,800 Descending Atlanta TRACON
07:48PM 33.5500 -84.5167 270° West 203 234 6,700 -1,680 Descending Atlanta TRACON
07:49PM 33.5333 -84.5833 253° West 203 234 5,000 -1,320 Descending Atlanta TRACON
07:50PM 33.5333 -84.6500 270° West 211 243 4,200 -480 Descending Atlanta TRACON
07:51PM 33.5333 -84.7167 270° West 211 243 4,100 -360 Descending Atlanta TRACON
07:52PM 33.5333 -84.7833 270° West 214 246 3,500 -600 Descending Atlanta TRACON
07:53PM 33.5667 -84.8167 320° Northwest 201 231 3,000 -240 Descending Atlanta TRACON
07:54PM 33.6167 -84.8000 16° North 177 204 3,100  Climbing Atlanta TRACON
07:55PM 33.6167 -84.7333 90° East 163 188 3,100  Level Atlanta TRACON
07:56PM 33.6167 -84.6833 90° East 162 186 3,100  Level Atlanta TRACON
07:57PM 33.6167 -84.6167 90° East 162 186 3,100 -60 Level Atlanta TRACON
07:58PM 33.6167 -84.5667 90° East 165 190 3,000 -480 Descending Atlanta TRACON
07:59PM 33.6167 -84.5167 90° East 141 162 2,200 -840 Descending Atlanta TRACON
08:00PM 33.6167 -84.4667 90° East 139 160 1,400 -840 Descending Atlanta TRACON